sensor_id;sensor_type;location;lat;lon;timestamp;P1;durP1;ratioP1;P2;durP2;ratioP2
22176;SDS011;11254;50.098;8.726;2023-02-08T00:00:07;16.45;;;7.55;;
22176;SDS011;11254;50.098;8.726;2023-02-08T00:02:36;14.90;;;7.38;;
22176;SDS011;11254;50.098;8.726;2023-02-08T00:05:05;17.60;;;7.53;;
22176;SDS011;11254;50.098;8.726;2023-02-08T00:07:33;15.35;;;7.63;;
22176;SDS011;11254;50.098;8.726;2023-02-08T00:10:01;22.73;;;7.38;;
22176;SDS011;11254;50.098;8.726;2023-02-08T00:12:31;19.63;;;8.63;;
22176;SDS011;11254;50.098;8.726;2023-02-08T00:15:00;16.65;;;7.30;;
22176;SDS011;11254;50.098;8.726;2023-02-08T00:17:30;20.75;;;8.07;;
22176;SDS011;11254;50.098;8.726;2023-02-08T00:19:58;18.15;;;7.57;;
22176;SDS011;11254;50.098;8.726;2023-02-08T00:22:27;16.20;;;7.93;;
22176;SDS011;11254;50.098;8.726;2023-02-08T00:24:55;13.68;;;6.90;;
22176;SDS011;11254;50.098;8.726;2023-02-08T00:27:23;18.80;;;7.80;;
22176;SDS011;11254;50.098;8.726;2023-02-08T00:29:52;15.15;;;7.25;;
22176;SDS011;11254;50.098;8.726;2023-02-08T00:32:20;15.98;;;7.72;;
22176;SDS011;11254;50.098;8.726;2023-02-08T00:34:50;15.82;;;7.38;;
22176;SDS011;11254;50.098;8.726;2023-02-08T00:37:18;17.55;;;7.43;;
22176;SDS011;11254;50.098;8.726;2023-02-08T00:39:48;13.95;;;7.45;;
22176;SDS011;11254;50.098;8.726;2023-02-08T00:42:16;18.45;;;8.00;;
22176;SDS011;11254;50.098;8.726;2023-02-08T00:44:44;16.08;;;7.35;;
22176;SDS011;11254;50.098;8.726;2023-02-08T00:47:13;16.88;;;7.57;;
22176;SDS011;11254;50.098;8.726;2023-02-08T00:49:42;18.45;;;7.75;;
22176;SDS011;11254;50.098;8.726;2023-02-08T00:52:14;18.17;;;8.05;;
22176;SDS011;11254;50.098;8.726;2023-02-08T00:54:42;17.60;;;7.47;;
22176;SDS011;11254;50.098;8.726;2023-02-08T00:57:12;19.75;;;8.05;;
22176;SDS011;11254;50.098;8.726;2023-02-08T00:59:40;15.85;;;6.57;;
22176;SDS011;11254;50.098;8.726;2023-02-08T01:02:08;16.40;;;7.90;;
22176;SDS011;11254;50.098;8.726;2023-02-08T01:04:37;17.08;;;7.50;;
22176;SDS011;11254;50.098;8.726;2023-02-08T01:07:05;16.25;;;7.72;;
22176;SDS011;11254;50.098;8.726;2023-02-08T01:09:35;19.42;;;7.55;;
22176;SDS011;11254;50.098;8.726;2023-02-08T01:12:03;18.15;;;7.57;;
22176;SDS011;11254;50.098;8.726;2023-02-08T01:14:32;15.90;;;7.53;;
22176;SDS011;11254;50.098;8.726;2023-02-08T01:17:00;16.75;;;8.82;;
22176;SDS011;11254;50.098;8.726;2023-02-08T01:19:29;15.18;;;7.50;;
22176;SDS011;11254;50.098;8.726;2023-02-08T01:21:57;19.13;;;7.90;;
22176;SDS011;11254;50.098;8.726;2023-02-08T01:24:25;17.15;;;8.23;;
22176;SDS011;11254;50.098;8.726;2023-02-08T01:26:57;15.32;;;7.85;;
22176;SDS011;11254;50.098;8.726;2023-02-08T01:29:25;18.05;;;7.90;;
22176;SDS011;11254;50.098;8.726;2023-02-08T01:31:53;15.70;;;7.72;;
22176;SDS011;11254;50.098;8.726;2023-02-08T01:34:22;16.42;;;7.53;;
22176;SDS011;11254;50.098;8.726;2023-02-08T01:36:50;16.35;;;7.70;;
22176;SDS011;11254;50.098;8.726;2023-02-08T01:39:18;20.50;;;8.20;;
22176;SDS011;11254;50.098;8.726;2023-02-08T01:41:46;18.73;;;8.20;;
22176;SDS011;11254;50.098;8.726;2023-02-08T01:47:03;17.40;;;7.55;;
22176;SDS011;11254;50.098;8.726;2023-02-08T01:49:32;19.13;;;8.63;;
22176;SDS011;11254;50.098;8.726;2023-02-08T01:52:02;17.17;;;7.65;;
22176;SDS011;11254;50.098;8.726;2023-02-08T01:54:32;19.13;;;8.38;;
22176;SDS011;11254;50.098;8.726;2023-02-08T01:57:02;17.90;;;7.93;;
22176;SDS011;11254;50.098;8.726;2023-02-08T01:59:32;17.73;;;7.65;;
22176;SDS011;11254;50.098;8.726;2023-02-08T02:02:01;16.10;;;7.45;;
22176;SDS011;11254;50.098;8.726;2023-02-08T02:04:31;15.50;;;8.10;;
22176;SDS011;11254;50.098;8.726;2023-02-08T02:07:00;21.15;;;8.10;;
22176;SDS011;11254;50.098;8.726;2023-02-08T02:09:30;19.80;;;8.02;;
22176;SDS011;11254;50.098;8.726;2023-02-08T02:11:59;17.15;;;7.88;;
22176;SDS011;11254;50.098;8.726;2023-02-08T02:14:28;16.80;;;7.78;;
22176;SDS011;11254;50.098;8.726;2023-02-08T02:16:58;14.27;;;7.50;;
22176;SDS011;11254;50.098;8.726;2023-02-08T02:19:29;17.92;;;7.75;;
22176;SDS011;11254;50.098;8.726;2023-02-08T02:22:04;18.92;;;8.10;;
22176;SDS011;11254;50.098;8.726;2023-02-08T02:24:47;15.88;;;7.63;;
22176;SDS011;11254;50.098;8.726;2023-02-08T02:27:24;16.05;;;7.35;;
22176;SDS011;11254;50.098;8.726;2023-02-08T04:34:56;18.48;;;7.53;;
22176;SDS011;11254;50.098;8.726;2023-02-08T04:37:24;16.90;;;7.45;;
22176;SDS011;11254;50.098;8.726;2023-02-08T04:39:53;19.50;;;8.98;;
22176;SDS011;11254;50.098;8.726;2023-02-08T04:42:21;16.13;;;7.90;;
22176;SDS011;11254;50.098;8.726;2023-02-08T04:44:49;16.73;;;7.65;;
22176;SDS011;11254;50.098;8.726;2023-02-08T04:47:18;16.70;;;7.65;;
22176;SDS011;11254;50.098;8.726;2023-02-08T04:49:46;19.30;;;7.75;;
22176;SDS011;11254;50.098;8.726;2023-02-08T04:52:16;19.50;;;8.35;;
22176;SDS011;11254;50.098;8.726;2023-02-08T04:54:44;17.65;;;7.63;;
22176;SDS011;11254;50.098;8.726;2023-02-08T04:57:13;17.45;;;7.90;;
22176;SDS011;11254;50.098;8.726;2023-02-08T04:59:41;20.38;;;8.70;;
22176;SDS011;11254;50.098;8.726;2023-02-08T05:02:10;19.73;;;7.72;;
22176;SDS011;11254;50.098;8.726;2023-02-08T05:04:38;24.27;;;8.52;;
22176;SDS011;11254;50.098;8.726;2023-02-08T05:07:06;20.63;;;7.95;;
22176;SDS011;11254;50.098;8.726;2023-02-08T05:09:36;19.98;;;8.02;;
22176;SDS011;11254;50.098;8.726;2023-02-08T05:12:05;19.17;;;8.05;;
22176;SDS011;11254;50.098;8.726;2023-02-08T05:14:33;19.85;;;7.88;;
22176;SDS011;11254;50.098;8.726;2023-02-08T05:17:01;19.10;;;7.72;;
22176;SDS011;11254;50.098;8.726;2023-02-08T05:19:29;21.35;;;8.23;;
22176;SDS011;11254;50.098;8.726;2023-02-08T05:21:58;18.75;;;8.90;;
22176;SDS011;11254;50.098;8.726;2023-02-08T05:24:26;17.45;;;7.90;;
22176;SDS011;11254;50.098;8.726;2023-02-08T05:26:56;20.83;;;8.05;;
22176;SDS011;11254;50.098;8.726;2023-02-08T05:29:24;20.58;;;8.88;;
22176;SDS011;11254;50.098;8.726;2023-02-08T05:31:52;21.05;;;9.43;;
22176;SDS011;11254;50.098;8.726;2023-02-08T05:34:21;27.65;;;10.98;;
22176;SDS011;11254;50.098;8.726;2023-02-08T05:36:49;37.80;;;12.73;;
22176;SDS011;11254;50.098;8.726;2023-02-08T05:39:18;29.38;;;10.82;;
22176;SDS011;11254;50.098;8.726;2023-02-08T05:41:46;23.60;;;9.85;;
22176;SDS011;11254;50.098;8.726;2023-02-08T05:44:16;26.42;;;9.70;;
22176;SDS011;11254;50.098;8.726;2023-02-08T05:46:44;14.57;;;7.40;;
22176;SDS011;11254;50.098;8.726;2023-02-08T05:49:12;17.17;;;8.35;;
22176;SDS011;11254;50.098;8.726;2023-02-08T05:51:41;18.77;;;7.68;;
22176;SDS011;11254;50.098;8.726;2023-02-08T05:54:09;21.50;;;8.73;;
22176;SDS011;11254;50.098;8.726;2023-02-08T05:56:37;15.63;;;8.23;;
22176;SDS011;11254;50.098;8.726;2023-02-08T05:59:06;20.58;;;8.57;;
22176;SDS011;11254;50.098;8.726;2023-02-08T06:01:35;18.70;;;8.65;;
22176;SDS011;11254;50.098;8.726;2023-02-08T06:04:04;17.30;;;8.48;;
22176;SDS011;11254;50.098;8.726;2023-02-08T06:06:32;18.63;;;8.45;;
22176;SDS011;11254;50.098;8.726;2023-02-08T06:09:01;20.65;;;9.73;;
22176;SDS011;11254;50.098;8.726;2023-02-08T06:11:30;19.40;;;8.80;;
22176;SDS011;11254;50.098;8.726;2023-02-08T06:13:58;20.08;;;8.32;;
22176;SDS011;11254;50.098;8.726;2023-02-08T06:16:27;17.90;;;9.27;;
22176;SDS011;11254;50.098;8.726;2023-02-08T06:18:57;20.95;;;9.70;;
22176;SDS011;11254;50.098;8.726;2023-02-08T06:21:25;19.30;;;9.32;;
22176;SDS011;11254;50.098;8.726;2023-02-08T06:23:53;19.25;;;8.75;;
22176;SDS011;11254;50.098;8.726;2023-02-08T06:26:22;22.60;;;8.50;;
22176;SDS011;11254;50.098;8.726;2023-02-08T06:28:50;21.33;;;9.73;;
22176;SDS011;11254;50.098;8.726;2023-02-08T06:31:18;20.77;;;8.60;;
22176;SDS011;11254;50.098;8.726;2023-02-08T06:33:47;19.27;;;7.93;;
22176;SDS011;11254;50.098;8.726;2023-02-08T06:36:16;17.17;;;7.97;;
22176;SDS011;11254;50.098;8.726;2023-02-08T06:38:44;19.48;;;7.63;;
22176;SDS011;11254;50.098;8.726;2023-02-08T06:41:16;18.70;;;7.68;;
22176;SDS011;11254;50.098;8.726;2023-02-08T06:43:45;18.33;;;7.55;;
22176;SDS011;11254;50.098;8.726;2023-02-08T06:46:13;18.77;;;7.47;;
22176;SDS011;11254;50.098;8.726;2023-02-08T06:48:41;15.48;;;7.50;;
22176;SDS011;11254;50.098;8.726;2023-02-08T06:51:10;16.20;;;7.38;;
22176;SDS011;11254;50.098;8.726;2023-02-08T06:53:39;19.70;;;8.10;;
22176;SDS011;11254;50.098;8.726;2023-02-08T06:56:07;23.17;;;8.85;;
22176;SDS011;11254;50.098;8.726;2023-02-08T06:58:36;22.75;;;7.95;;
22176;SDS011;11254;50.098;8.726;2023-02-08T07:01:04;17.35;;;8.05;;
22176;SDS011;11254;50.098;8.726;2023-02-08T07:03:32;18.17;;;8.50;;
22176;SDS011;11254;50.098;8.726;2023-02-08T07:06:01;20.17;;;8.15;;
22176;SDS011;11254;50.098;8.726;2023-02-08T07:08:31;15.70;;;7.45;;
22176;SDS011;11254;50.098;8.726;2023-02-08T07:11:05;21.90;;;8.57;;
22176;SDS011;11254;50.098;8.726;2023-02-08T07:13:34;17.90;;;7.97;;
22176;SDS011;11254;50.098;8.726;2023-02-08T07:16:03;21.55;;;8.68;;
22176;SDS011;11254;50.098;8.726;2023-02-08T07:18:31;17.27;;;7.70;;
22176;SDS011;11254;50.098;8.726;2023-02-08T07:21:00;19.60;;;7.95;;
22176;SDS011;11254;50.098;8.726;2023-02-08T07:23:29;14.18;;;6.93;;
22176;SDS011;11254;50.098;8.726;2023-02-08T07:25:57;23.90;;;8.00;;
22176;SDS011;11254;50.098;8.726;2023-02-08T07:28:27;19.42;;;8.43;;
22176;SDS011;11254;50.098;8.726;2023-02-08T07:30:56;14.88;;;7.80;;
22176;SDS011;11254;50.098;8.726;2023-02-08T07:33:25;17.50;;;7.40;;
22176;SDS011;11254;50.098;8.726;2023-02-08T07:35:53;18.48;;;8.82;;
22176;SDS011;11254;50.098;8.726;2023-02-08T07:38:21;17.75;;;8.38;;
22176;SDS011;11254;50.098;8.726;2023-02-08T07:40:50;16.98;;;8.55;;
22176;SDS011;11254;50.098;8.726;2023-02-08T07:43:18;19.50;;;8.50;;
22176;SDS011;11254;50.098;8.726;2023-02-08T07:45:56;17.60;;;8.10;;
22176;SDS011;11254;50.098;8.726;2023-02-08T07:48:24;16.77;;;7.28;;
22176;SDS011;11254;50.098;8.726;2023-02-08T07:50:53;17.98;;;7.90;;
22176;SDS011;11254;50.098;8.726;2023-02-08T07:53:21;19.42;;;7.32;;
22176;SDS011;11254;50.098;8.726;2023-02-08T07:55:49;18.90;;;6.68;;
22176;SDS011;11254;50.098;8.726;2023-02-08T07:58:17;20.55;;;7.97;;
22176;SDS011;11254;50.098;8.726;2023-02-08T08:00:46;18.45;;;7.63;;
22176;SDS011;11254;50.098;8.726;2023-02-08T08:03:15;15.38;;;6.63;;
22176;SDS011;11254;50.098;8.726;2023-02-08T08:05:44;19.15;;;7.07;;
22176;SDS011;11254;50.098;8.726;2023-02-08T08:08:12;14.98;;;6.72;;
22176;SDS011;11254;50.098;8.726;2023-02-08T08:10:41;17.80;;;7.18;;
22176;SDS011;11254;50.098;8.726;2023-02-08T08:13:10;16.48;;;7.65;;
22176;SDS011;11254;50.098;8.726;2023-02-08T08:15:38;19.48;;;8.10;;
22176;SDS011;11254;50.098;8.726;2023-02-08T08:18:07;19.58;;;7.72;;
22176;SDS011;11254;50.098;8.726;2023-02-08T08:20:37;21.52;;;9.00;;
22176;SDS011;11254;50.098;8.726;2023-02-08T08:23:05;19.20;;;8.43;;
22176;SDS011;11254;50.098;8.726;2023-02-08T08:25:34;20.80;;;8.75;;
22176;SDS011;11254;50.098;8.726;2023-02-08T08:28:03;16.80;;;7.72;;
22176;SDS011;11254;50.098;8.726;2023-02-08T08:30:32;20.20;;;7.85;;
22176;SDS011;11254;50.098;8.726;2023-02-08T08:33:01;16.10;;;7.25;;
22176;SDS011;11254;50.098;8.726;2023-02-08T08:35:29;17.60;;;7.50;;
22176;SDS011;11254;50.098;8.726;2023-02-08T08:37:59;16.10;;;7.30;;
22176;SDS011;11254;50.098;8.726;2023-02-08T08:40:27;16.92;;;6.93;;
22176;SDS011;11254;50.098;8.726;2023-02-08T08:42:56;19.88;;;6.95;;
22176;SDS011;11254;50.098;8.726;2023-02-08T08:45:24;18.02;;;6.75;;
22176;SDS011;11254;50.098;8.726;2023-02-08T08:47:52;17.65;;;7.43;;
22176;SDS011;11254;50.098;8.726;2023-02-08T08:50:21;12.95;;;6.05;;
22176;SDS011;11254;50.098;8.726;2023-02-08T08:52:49;14.25;;;6.18;;
22176;SDS011;11254;50.098;8.726;2023-02-08T08:55:19;14.65;;;6.47;;
22176;SDS011;11254;50.098;8.726;2023-02-08T08:57:47;15.35;;;6.75;;
22176;SDS011;11254;50.098;8.726;2023-02-08T09:00:15;15.23;;;6.60;;
22176;SDS011;11254;50.098;8.726;2023-02-08T09:02:44;15.40;;;6.47;;
22176;SDS011;11254;50.098;8.726;2023-02-08T09:05:13;12.55;;;6.50;;
22176;SDS011;11254;50.098;8.726;2023-02-08T09:07:41;16.52;;;7.10;;
22176;SDS011;11254;50.098;8.726;2023-02-08T09:10:09;14.93;;;7.00;;
22176;SDS011;11254;50.098;8.726;2023-02-08T09:12:39;14.05;;;7.57;;
22176;SDS011;11254;50.098;8.726;2023-02-08T09:15:07;16.75;;;6.78;;
22176;SDS011;11254;50.098;8.726;2023-02-08T09:17:36;13.80;;;7.70;;
22176;SDS011;11254;50.098;8.726;2023-02-08T09:20:05;21.40;;;7.22;;
22176;SDS011;11254;50.098;8.726;2023-02-08T09:22:33;15.35;;;8.00;;
22176;SDS011;11254;50.098;8.726;2023-02-08T09:25:02;12.82;;;7.10;;
22176;SDS011;11254;50.098;8.726;2023-02-08T09:27:30;16.35;;;8.05;;
22176;SDS011;11254;50.098;8.726;2023-02-08T09:30:00;16.08;;;8.50;;
22176;SDS011;11254;50.098;8.726;2023-02-08T09:32:29;18.40;;;9.02;;
22176;SDS011;11254;50.098;8.726;2023-02-08T09:34:59;15.93;;;8.15;;
22176;SDS011;11254;50.098;8.726;2023-02-08T09:37:28;16.45;;;8.60;;
22176;SDS011;11254;50.098;8.726;2023-02-08T09:39:56;16.33;;;8.43;;
22176;SDS011;11254;50.098;8.726;2023-02-08T09:42:31;16.38;;;9.95;;
22176;SDS011;11254;50.098;8.726;2023-02-08T09:45:06;15.45;;;8.88;;
22176;SDS011;11254;50.098;8.726;2023-02-08T09:47:40;18.30;;;9.15;;
22176;SDS011;11254;50.098;8.726;2023-02-08T09:50:11;17.17;;;9.32;;
22176;SDS011;11254;50.098;8.726;2023-02-08T09:52:40;15.23;;;9.07;;
22176;SDS011;11254;50.098;8.726;2023-02-08T09:55:14;17.83;;;9.25;;
22176;SDS011;11254;50.098;8.726;2023-02-08T09:57:44;15.70;;;8.30;;
22176;SDS011;11254;50.098;8.726;2023-02-08T10:00:15;19.00;;;9.10;;
22176;SDS011;11254;50.098;8.726;2023-02-08T10:02:44;16.13;;;8.30;;
22176;SDS011;11254;50.098;8.726;2023-02-08T10:05:17;19.38;;;9.20;;
22176;SDS011;11254;50.098;8.726;2023-02-08T10:07:47;20.20;;;9.15;;
22176;SDS011;11254;50.098;8.726;2023-02-08T10:10:18;18.42;;;9.15;;
22176;SDS011;11254;50.098;8.726;2023-02-08T10:12:50;21.08;;;8.90;;
22176;SDS011;11254;50.098;8.726;2023-02-08T10:15:24;20.23;;;9.10;;
22176;SDS011;11254;50.098;8.726;2023-02-08T10:18:00;17.10;;;8.30;;
22176;SDS011;11254;50.098;8.726;2023-02-08T10:20:34;17.92;;;9.05;;
22176;SDS011;11254;50.098;8.726;2023-02-08T10:23:07;15.35;;;9.40;;
22176;SDS011;11254;50.098;8.726;2023-02-08T10:25:53;17.33;;;8.93;;
22176;SDS011;11254;50.098;8.726;2023-02-08T10:28:29;22.23;;;9.52;;
22176;SDS011;11254;50.098;8.726;2023-02-08T10:31:02;19.00;;;9.40;;
22176;SDS011;11254;50.098;8.726;2023-02-08T10:33:35;21.35;;;10.05;;
22176;SDS011;11254;50.098;8.726;2023-02-08T10:36:07;21.10;;;9.70;;
22176;SDS011;11254;50.098;8.726;2023-02-08T10:38:40;19.95;;;9.38;;
22176;SDS011;11254;50.098;8.726;2023-02-08T10:41:14;20.35;;;9.45;;
22176;SDS011;11254;50.098;8.726;2023-02-08T10:43:44;17.88;;;8.57;;
22176;SDS011;11254;50.098;8.726;2023-02-08T10:46:15;14.30;;;8.57;;
22176;SDS011;11254;50.098;8.726;2023-02-08T10:48:49;20.08;;;9.48;;
22176;SDS011;11254;50.098;8.726;2023-02-08T10:51:19;19.10;;;9.15;;
22176;SDS011;11254;50.098;8.726;2023-02-08T10:53:48;20.05;;;8.60;;
22176;SDS011;11254;50.098;8.726;2023-02-08T10:56:20;18.38;;;9.00;;
22176;SDS011;11254;50.098;8.726;2023-02-08T10:58:52;18.30;;;8.77;;
22176;SDS011;11254;50.098;8.726;2023-02-08T11:01:22;18.23;;;9.10;;
22176;SDS011;11254;50.098;8.726;2023-02-08T11:04:00;17.55;;;9.07;;
22176;SDS011;11254;50.098;8.726;2023-02-08T11:06:28;18.40;;;8.65;;
22176;SDS011;11254;50.098;8.726;2023-02-08T11:08:57;18.67;;;8.77;;
22176;SDS011;11254;50.098;8.726;2023-02-08T11:11:26;17.50;;;9.18;;
22176;SDS011;11254;50.098;8.726;2023-02-08T11:14:04;21.67;;;8.98;;
22176;SDS011;11254;50.098;8.726;2023-02-08T11:16:35;21.48;;;9.07;;
22176;SDS011;11254;50.098;8.726;2023-02-08T11:19:04;16.95;;;7.82;;
22176;SDS011;11254;50.098;8.726;2023-02-08T11:21:34;18.63;;;7.97;;
22176;SDS011;11254;50.098;8.726;2023-02-08T11:24:05;15.35;;;7.50;;
22176;SDS011;11254;50.098;8.726;2023-02-08T11:26:35;17.23;;;7.15;;
22176;SDS011;11254;50.098;8.726;2023-02-08T11:29:04;22.02;;;8.40;;
22176;SDS011;11254;50.098;8.726;2023-02-08T11:31:42;15.68;;;7.03;;
22176;SDS011;11254;50.098;8.726;2023-02-08T11:34:23;15.07;;;6.80;;
22176;SDS011;11254;50.098;8.726;2023-02-08T11:36:52;16.30;;;7.18;;
22176;SDS011;11254;50.098;8.726;2023-02-08T11:39:21;15.00;;;7.03;;
22176;SDS011;11254;50.098;8.726;2023-02-08T11:41:51;14.63;;;6.57;;
22176;SDS011;11254;50.098;8.726;2023-02-08T11:44:22;14.55;;;6.20;;
22176;SDS011;11254;50.098;8.726;2023-02-08T11:46:54;13.07;;;6.28;;
22176;SDS011;11254;50.098;8.726;2023-02-08T11:49:24;13.90;;;6.07;;
22176;SDS011;11254;50.098;8.726;2023-02-08T11:51:53;15.38;;;6.22;;
22176;SDS011;11254;50.098;8.726;2023-02-08T11:54:37;11.90;;;5.60;;
22176;SDS011;11254;50.098;8.726;2023-02-08T11:57:10;14.25;;;5.68;;
22176;SDS011;11254;50.098;8.726;2023-02-08T11:59:39;14.73;;;6.75;;
22176;SDS011;11254;50.098;8.726;2023-02-08T12:02:21;14.75;;;7.10;;
22176;SDS011;11254;50.098;8.726;2023-02-08T12:04:53;15.43;;;7.13;;
22176;SDS011;11254;50.098;8.726;2023-02-08T12:07:22;16.67;;;6.63;;
22176;SDS011;11254;50.098;8.726;2023-02-08T12:10:04;12.70;;;5.80;;
22176;SDS011;11254;50.098;8.726;2023-02-08T12:12:37;12.73;;;5.43;;
22176;SDS011;11254;50.098;8.726;2023-02-08T12:15:10;12.48;;;5.30;;
22176;SDS011;11254;50.098;8.726;2023-02-08T12:17:48;12.75;;;5.78;;
22176;SDS011;11254;50.098;8.726;2023-02-08T12:20:31;15.02;;;6.07;;
22176;SDS011;11254;50.098;8.726;2023-02-08T12:23:03;11.45;;;5.57;;
22176;SDS011;11254;50.098;8.726;2023-02-08T12:25:34;10.30;;;5.10;;
22176;SDS011;11254;50.098;8.726;2023-02-08T12:28:08;11.68;;;5.22;;
22176;SDS011;11254;50.098;8.726;2023-02-08T12:30:38;14.90;;;6.15;;
22176;SDS011;11254;50.098;8.726;2023-02-08T12:33:24;14.95;;;6.53;;
22176;SDS011;11254;50.098;8.726;2023-02-08T12:36:10;13.75;;;6.57;;
22176;SDS011;11254;50.098;8.726;2023-02-08T12:38:51;14.45;;;6.22;;
22176;SDS011;11254;50.098;8.726;2023-02-08T12:41:50;14.70;;;6.50;;
22176;SDS011;11254;50.098;8.726;2023-02-08T12:44:26;15.70;;;6.35;;
22176;SDS011;11254;50.098;8.726;2023-02-08T12:46:58;15.45;;;6.75;;
22176;SDS011;11254;50.098;8.726;2023-02-08T12:49:34;14.32;;;6.53;;
22176;SDS011;11254;50.098;8.726;2023-02-08T12:52:08;15.40;;;6.45;;
22176;SDS011;11254;50.098;8.726;2023-02-08T12:54:41;16.02;;;6.15;;
22176;SDS011;11254;50.098;8.726;2023-02-08T12:57:12;14.73;;;6.00;;
22176;SDS011;11254;50.098;8.726;2023-02-08T12:59:42;12.77;;;5.53;;
22176;SDS011;11254;50.098;8.726;2023-02-08T13:02:13;12.95;;;5.53;;
22176;SDS011;11254;50.098;8.726;2023-02-08T13:04:45;12.35;;;4.53;;
22176;SDS011;11254;50.098;8.726;2023-02-08T13:07:15;11.90;;;4.70;;
22176;SDS011;11254;50.098;8.726;2023-02-08T13:09:47;10.20;;;4.57;;
22176;SDS011;11254;50.098;8.726;2023-02-08T13:12:17;9.02;;;4.32;;
22176;SDS011;11254;50.098;8.726;2023-02-08T13:14:48;11.10;;;5.05;;
22176;SDS011;11254;50.098;8.726;2023-02-08T13:17:18;10.57;;;4.53;;
22176;SDS011;11254;50.098;8.726;2023-02-08T13:19:51;11.40;;;4.63;;
22176;SDS011;11254;50.098;8.726;2023-02-08T13:22:26;10.95;;;4.90;;
22176;SDS011;11254;50.098;8.726;2023-02-08T13:24:55;9.88;;;5.28;;
22176;SDS011;11254;50.098;8.726;2023-02-08T13:27:33;10.32;;;4.68;;
22176;SDS011;11254;50.098;8.726;2023-02-08T13:30:01;12.02;;;4.90;;
22176;SDS011;11254;50.098;8.726;2023-02-08T13:32:33;12.30;;;4.68;;
22176;SDS011;11254;50.098;8.726;2023-02-08T13:35:04;10.40;;;4.65;;
22176;SDS011;11254;50.098;8.726;2023-02-08T13:37:35;10.23;;;4.95;;
22176;SDS011;11254;50.098;8.726;2023-02-08T13:40:04;11.77;;;4.28;;
22176;SDS011;11254;50.098;8.726;2023-02-08T13:42:34;12.18;;;5.05;;
22176;SDS011;11254;50.098;8.726;2023-02-08T13:45:03;13.07;;;4.55;;
22176;SDS011;11254;50.098;8.726;2023-02-08T13:47:33;9.52;;;4.20;;
22176;SDS011;11254;50.098;8.726;2023-02-08T13:50:16;10.27;;;4.25;;
22176;SDS011;11254;50.098;8.726;2023-02-08T13:52:56;9.15;;;4.18;;
22176;SDS011;11254;50.098;8.726;2023-02-08T13:58:24;11.00;;;4.40;;
22176;SDS011;11254;50.098;8.726;2023-02-08T14:01:00;9.38;;;4.28;;
22176;SDS011;11254;50.098;8.726;2023-02-08T14:03:30;12.15;;;4.30;;
22176;SDS011;11254;50.098;8.726;2023-02-08T14:05:59;7.57;;;3.95;;
22176;SDS011;11254;50.098;8.726;2023-02-08T14:08:29;9.40;;;4.13;;
22176;SDS011;11254;50.098;8.726;2023-02-08T14:11:02;8.52;;;3.67;;
22176;SDS011;11254;50.098;8.726;2023-02-08T14:13:35;10.60;;;4.95;;
22176;SDS011;11254;50.098;8.726;2023-02-08T14:16:21;12.40;;;4.85;;
22176;SDS011;11254;50.098;8.726;2023-02-08T14:18:50;10.15;;;4.90;;
22176;SDS011;11254;50.098;8.726;2023-02-08T14:21:24;10.57;;;4.13;;
22176;SDS011;11254;50.098;8.726;2023-02-08T14:24:03;9.75;;;4.30;;
22176;SDS011;11254;50.098;8.726;2023-02-08T14:26:31;10.80;;;4.60;;
22176;SDS011;11254;50.098;8.726;2023-02-08T14:29:01;9.05;;;4.00;;
22176;SDS011;11254;50.098;8.726;2023-02-08T14:31:34;12.10;;;4.20;;
22176;SDS011;11254;50.098;8.726;2023-02-08T14:34:03;10.18;;;4.35;;
22176;SDS011;11254;50.098;8.726;2023-02-08T14:36:33;8.70;;;3.65;;
22176;SDS011;11254;50.098;8.726;2023-02-08T14:39:24;10.10;;;3.75;;
22176;SDS011;11254;50.098;8.726;2023-02-08T14:41:54;9.07;;;4.00;;
22176;SDS011;11254;50.098;8.726;2023-02-08T14:50:10;10.48;;;4.40;;
22176;SDS011;11254;50.098;8.726;2023-02-08T14:52:41;8.18;;;3.85;;
22176;SDS011;11254;50.098;8.726;2023-02-08T14:55:13;9.68;;;4.13;;
22176;SDS011;11254;50.098;8.726;2023-02-08T14:57:44;10.77;;;4.35;;
22176;SDS011;11254;50.098;8.726;2023-02-08T15:00:16;9.43;;;4.00;;
22176;SDS011;11254;50.098;8.726;2023-02-08T15:02:46;11.90;;;4.40;;
22176;SDS011;11254;50.098;8.726;2023-02-08T15:05:19;7.47;;;3.40;;
22176;SDS011;11254;50.098;8.726;2023-02-08T15:07:48;8.77;;;3.90;;
22176;SDS011;11254;50.098;8.726;2023-02-08T15:10:20;10.95;;;4.38;;
22176;SDS011;11254;50.098;8.726;2023-02-08T15:12:51;11.45;;;4.28;;
22176;SDS011;11254;50.098;8.726;2023-02-08T15:15:22;8.77;;;3.80;;
22176;SDS011;11254;50.098;8.726;2023-02-08T15:17:51;8.45;;;4.03;;
22176;SDS011;11254;50.098;8.726;2023-02-08T15:20:20;9.13;;;4.15;;
22176;SDS011;11254;50.098;8.726;2023-02-08T15:22:55;10.70;;;3.88;;
22176;SDS011;11254;50.098;8.726;2023-02-08T15:25:26;10.20;;;4.45;;
22176;SDS011;11254;50.098;8.726;2023-02-08T15:27:56;9.55;;;3.83;;
22176;SDS011;11254;50.098;8.726;2023-02-08T15:30:27;8.57;;;3.88;;
22176;SDS011;11254;50.098;8.726;2023-02-08T15:32:55;9.40;;;4.07;;
22176;SDS011;11254;50.098;8.726;2023-02-08T15:35:25;10.13;;;3.83;;
22176;SDS011;11254;50.098;8.726;2023-02-08T15:37:54;9.18;;;4.13;;
22176;SDS011;11254;50.098;8.726;2023-02-08T15:40:24;25.88;;;11.52;;
22176;SDS011;11254;50.098;8.726;2023-02-08T15:42:54;16.15;;;6.82;;
22176;SDS011;11254;50.098;8.726;2023-02-08T15:45:23;11.43;;;4.78;;
22176;SDS011;11254;50.098;8.726;2023-02-08T15:47:52;9.88;;;4.10;;
22176;SDS011;11254;50.098;8.726;2023-02-08T15:50:21;9.80;;;4.00;;
22176;SDS011;11254;50.098;8.726;2023-02-08T15:52:50;9.30;;;4.30;;
22176;SDS011;11254;50.098;8.726;2023-02-08T15:55:21;9.48;;;4.03;;
22176;SDS011;11254;50.098;8.726;2023-02-08T15:57:54;11.65;;;4.95;;
22176;SDS011;11254;50.098;8.726;2023-02-08T16:00:25;9.63;;;4.57;;
22176;SDS011;11254;50.098;8.726;2023-02-08T16:02:56;12.27;;;5.13;;
22176;SDS011;11254;50.098;8.726;2023-02-08T16:05:27;9.73;;;4.80;;
22176;SDS011;11254;50.098;8.726;2023-02-08T16:07:56;12.00;;;5.25;;
22176;SDS011;11254;50.098;8.726;2023-02-08T16:10:28;8.75;;;4.60;;
22176;SDS011;11254;50.098;8.726;2023-02-08T16:13:01;8.80;;;4.68;;
22176;SDS011;11254;50.098;8.726;2023-02-08T16:15:37;11.75;;;4.32;;
22176;SDS011;11254;50.098;8.726;2023-02-08T16:20:55;10.38;;;4.22;;
22176;SDS011;11254;50.098;8.726;2023-02-08T16:23:24;9.18;;;4.32;;
22176;SDS011;11254;50.098;8.726;2023-02-08T16:25:53;10.48;;;4.47;;
22176;SDS011;11254;50.098;8.726;2023-02-08T16:28:25;10.20;;;4.30;;
22176;SDS011;11254;50.098;8.726;2023-02-08T16:30:54;10.73;;;5.00;;
22176;SDS011;11254;50.098;8.726;2023-02-08T16:33:23;13.43;;;5.25;;
22176;SDS011;11254;50.098;8.726;2023-02-08T16:35:52;12.43;;;4.80;;
22176;SDS011;11254;50.098;8.726;2023-02-08T16:38:27;11.68;;;5.25;;
22176;SDS011;11254;50.098;8.726;2023-02-08T16:40:56;13.02;;;6.00;;
22176;SDS011;11254;50.098;8.726;2023-02-08T16:43:38;11.52;;;5.75;;
22176;SDS011;11254;50.098;8.726;2023-02-08T16:48:56;19.27;;;7.93;;
22176;SDS011;11254;50.098;8.726;2023-02-08T16:51:25;20.63;;;9.18;;
22176;SDS011;11254;50.098;8.726;2023-02-08T16:53:54;24.88;;;10.43;;
22176;SDS011;11254;50.098;8.726;2023-02-08T16:56:23;29.55;;;13.70;;
22176;SDS011;11254;50.098;8.726;2023-02-08T16:58:53;24.23;;;11.45;;
22176;SDS011;11254;50.098;8.726;2023-02-08T17:01:21;51.08;;;25.55;;
22176;SDS011;11254;50.098;8.726;2023-02-08T17:03:50;38.95;;;20.05;;
22176;SDS011;11254;50.098;8.726;2023-02-08T17:06:20;27.35;;;12.95;;
22176;SDS011;11254;50.098;8.726;2023-02-08T17:08:50;48.78;;;23.42;;
22176;SDS011;11254;50.098;8.726;2023-02-08T17:11:18;17.13;;;7.95;;
22176;SDS011;11254;50.098;8.726;2023-02-08T17:13:46;27.40;;;11.98;;
22176;SDS011;11254;50.098;8.726;2023-02-08T17:16:19;15.07;;;6.40;;